sensor_id;sensor_type;location;lat;lon;timestamp;P1;durP1;ratioP1;P2;durP2;ratioP2
61644;SDS011;47553;52.428;13.382;2022-10-26T00:00:45;11.10;;;5.25;;
61644;SDS011;47553;52.428;13.382;2022-10-26T00:02:47;9.55;;;4.50;;
61644;SDS011;47553;52.428;13.382;2022-10-26T00:04:49;9.80;;;4.40;;
61644;SDS011;47553;52.428;13.382;2022-10-26T00:06:51;10.80;;;4.90;;
61644;SDS011;47553;52.428;13.382;2022-10-26T00:08:52;13.07;;;5.05;;
61644;SDS011;47553;52.428;13.382;2022-10-26T00:12:57;11.55;;;4.75;;
61644;SDS011;47553;52.428;13.382;2022-10-26T00:14:59;13.10;;;5.38;;
61644;SDS011;47553;52.428;13.382;2022-10-26T00:17:01;11.15;;;4.88;;
61644;SDS011;47553;52.428;13.382;2022-10-26T00:19:03;12.73;;;5.53;;
61644;SDS011;47553;52.428;13.382;2022-10-26T00:21:05;10.60;;;4.90;;
61644;SDS011;47553;52.428;13.382;2022-10-26T00:23:08;13.32;;;5.18;;
61644;SDS011;47553;52.428;13.382;2022-10-26T00:25:09;12.40;;;5.05;;
61644;SDS011;47553;52.428;13.382;2022-10-26T00:27:11;10.52;;;4.57;;
61644;SDS011;47553;52.428;13.382;2022-10-26T00:31:14;10.70;;;4.63;;
61644;SDS011;47553;52.428;13.382;2022-10-26T00:33:17;11.32;;;4.38;;
61644;SDS011;47553;52.428;13.382;2022-10-26T00:35:19;11.25;;;5.10;;
61644;SDS011;47553;52.428;13.382;2022-10-26T00:37:29;11.70;;;5.22;;
61644;SDS011;47553;52.428;13.382;2022-10-26T00:39:30;9.52;;;4.28;;
61644;SDS011;47553;52.428;13.382;2022-10-26T00:41:32;10.70;;;4.82;;
61644;SDS011;47553;52.428;13.382;2022-10-26T00:43:35;10.40;;;4.68;;
61644;SDS011;47553;52.428;13.382;2022-10-26T00:45:38;10.55;;;4.38;;
61644;SDS011;47553;52.428;13.382;2022-10-26T00:47:40;10.02;;;4.70;;
61644;SDS011;47553;52.428;13.382;2022-10-26T00:49:47;10.88;;;4.63;;
61644;SDS011;47553;52.428;13.382;2022-10-26T00:51:52;13.27;;;4.88;;
61644;SDS011;47553;52.428;13.382;2022-10-26T00:53:54;13.88;;;5.22;;
61644;SDS011;47553;52.428;13.382;2022-10-26T00:55:56;10.82;;;4.18;;
61644;SDS011;47553;52.428;13.382;2022-10-26T00:57:58;10.20;;;4.80;;
61644;SDS011;47553;52.428;13.382;2022-10-26T01:00:03;11.15;;;4.75;;
61644;SDS011;47553;52.428;13.382;2022-10-26T01:02:05;11.88;;;5.13;;
61644;SDS011;47553;52.428;13.382;2022-10-26T01:04:07;12.27;;;5.55;;
61644;SDS011;47553;52.428;13.382;2022-10-26T01:06:10;15.25;;;5.53;;
61644;SDS011;47553;52.428;13.382;2022-10-26T01:08:14;12.25;;;5.05;;
61644;SDS011;47553;52.428;13.382;2022-10-26T01:10:17;11.07;;;5.18;;
61644;SDS011;47553;52.428;13.382;2022-10-26T01:12:18;12.07;;;5.10;;
61644;SDS011;47553;52.428;13.382;2022-10-26T01:14:20;11.60;;;5.43;;
61644;SDS011;47553;52.428;13.382;2022-10-26T01:18:51;12.13;;;5.60;;
61644;SDS011;47553;52.428;13.382;2022-10-26T01:23:48;11.73;;;5.10;;
61644;SDS011;47553;52.428;13.382;2022-10-26T01:26:34;14.90;;;5.15;;
61644;SDS011;47553;52.428;13.382;2022-10-26T01:29:09;10.35;;;4.95;;
61644;SDS011;47553;52.428;13.382;2022-10-26T01:31:40;10.57;;;4.60;;
61644;SDS011;47553;52.428;13.382;2022-10-26T01:33:44;12.00;;;4.28;;
61644;SDS011;47553;52.428;13.382;2022-10-26T01:35:53;10.77;;;4.60;;
61644;SDS011;47553;52.428;13.382;2022-10-26T01:38:03;13.55;;;6.30;;
61644;SDS011;47553;52.428;13.382;2022-10-26T01:40:08;12.50;;;5.05;;
61644;SDS011;47553;52.428;13.382;2022-10-26T01:42:16;9.80;;;4.63;;
61644;SDS011;47553;52.428;13.382;2022-10-26T01:44:20;9.98;;;4.30;;
61644;SDS011;47553;52.428;13.382;2022-10-26T01:46:27;9.15;;;4.47;;
61644;SDS011;47553;52.428;13.382;2022-10-26T01:48:35;10.55;;;5.00;;
61644;SDS011;47553;52.428;13.382;2022-10-26T01:50:38;10.68;;;4.80;;
61644;SDS011;47553;52.428;13.382;2022-10-26T01:52:40;11.68;;;4.55;;
61644;SDS011;47553;52.428;13.382;2022-10-26T01:54:42;12.98;;;4.70;;
61644;SDS011;47553;52.428;13.382;2022-10-26T01:56:44;10.95;;;4.00;;
61644;SDS011;47553;52.428;13.382;2022-10-26T01:59:02;9.73;;;4.70;;
61644;SDS011;47553;52.428;13.382;2022-10-26T02:01:17;11.65;;;4.40;;
61644;SDS011;47553;52.428;13.382;2022-10-26T02:03:30;9.15;;;4.70;;
61644;SDS011;47553;52.428;13.382;2022-10-26T02:05:49;11.77;;;4.78;;
61644;SDS011;47553;52.428;13.382;2022-10-26T02:08:04;11.57;;;5.25;;
61644;SDS011;47553;52.428;13.382;2022-10-26T02:10:29;17.25;;;6.85;;
61644;SDS011;47553;52.428;13.382;2022-10-26T02:12:40;11.95;;;4.93;;
61644;SDS011;47553;52.428;13.382;2022-10-26T02:14:49;13.63;;;5.25;;
61644;SDS011;47553;52.428;13.382;2022-10-26T02:16:59;12.73;;;4.93;;
61644;SDS011;47553;52.428;13.382;2022-10-26T02:19:06;10.15;;;4.65;;
61644;SDS011;47553;52.428;13.382;2022-10-26T02:21:17;10.27;;;4.70;;
61644;SDS011;47553;52.428;13.382;2022-10-26T02:23:23;9.60;;;4.35;;
61644;SDS011;47553;52.428;13.382;2022-10-26T02:25:28;8.68;;;3.83;;
61644;SDS011;47553;52.428;13.382;2022-10-26T02:27:33;12.70;;;4.82;;
61644;SDS011;47553;52.428;13.382;2022-10-26T02:29:40;10.43;;;4.45;;
61644;SDS011;47553;52.428;13.382;2022-10-26T02:31:44;11.27;;;5.00;;
61644;SDS011;47553;52.428;13.382;2022-10-26T02:33:48;12.75;;;5.05;;
61644;SDS011;47553;52.428;13.382;2022-10-26T02:35:52;12.77;;;5.22;;
61644;SDS011;47553;52.428;13.382;2022-10-26T02:37:58;9.35;;;4.63;;
61644;SDS011;47553;52.428;13.382;2022-10-26T02:40:02;11.63;;;4.85;;
61644;SDS011;47553;52.428;13.382;2022-10-26T02:42:07;9.80;;;5.00;;
61644;SDS011;47553;52.428;13.382;2022-10-26T02:44:12;9.57;;;4.45;;
61644;SDS011;47553;52.428;13.382;2022-10-26T02:46:19;9.68;;;4.32;;
61644;SDS011;47553;52.428;13.382;2022-10-26T02:48:25;8.57;;;4.40;;
61644;SDS011;47553;52.428;13.382;2022-10-26T02:52:34;9.43;;;4.10;;
61644;SDS011;47553;52.428;13.382;2022-10-26T02:54:47;10.95;;;5.40;;
61644;SDS011;47553;52.428;13.382;2022-10-26T02:56:53;9.70;;;4.45;;
61644;SDS011;47553;52.428;13.382;2022-10-26T02:59:02;9.52;;;4.45;;
61644;SDS011;47553;52.428;13.382;2022-10-26T03:01:06;10.52;;;4.88;;
61644;SDS011;47553;52.428;13.382;2022-10-26T03:03:08;11.48;;;4.93;;
61644;SDS011;47553;52.428;13.382;2022-10-26T03:05:11;12.55;;;5.53;;
61644;SDS011;47553;52.428;13.382;2022-10-26T03:07:19;11.57;;;4.63;;
61644;SDS011;47553;52.428;13.382;2022-10-26T03:09:21;10.15;;;4.60;;
61644;SDS011;47553;52.428;13.382;2022-10-26T03:11:27;11.10;;;4.47;;
61644;SDS011;47553;52.428;13.382;2022-10-26T03:13:29;13.40;;;4.75;;
61644;SDS011;47553;52.428;13.382;2022-10-26T03:17:31;10.43;;;4.85;;
61644;SDS011;47553;52.428;13.382;2022-10-26T03:19:33;8.60;;;4.03;;
61644;SDS011;47553;52.428;13.382;2022-10-26T03:21:34;10.18;;;4.53;;
61644;SDS011;47553;52.428;13.382;2022-10-26T03:25:37;9.27;;;3.88;;
61644;SDS011;47553;52.428;13.382;2022-10-26T03:27:42;11.45;;;4.47;;
61644;SDS011;47553;52.428;13.382;2022-10-26T03:29:44;10.02;;;4.95;;
61644;SDS011;47553;52.428;13.382;2022-10-26T03:33:46;13.02;;;5.55;;
61644;SDS011;47553;52.428;13.382;2022-10-26T03:35:52;9.52;;;4.35;;
61644;SDS011;47553;52.428;13.382;2022-10-26T03:37:54;11.43;;;4.60;;
61644;SDS011;47553;52.428;13.382;2022-10-26T03:41:57;11.20;;;3.80;;
61644;SDS011;47553;52.428;13.382;2022-10-26T03:44:00;8.43;;;4.10;;
61644;SDS011;47553;52.428;13.382;2022-10-26T03:46:02;12.27;;;5.88;;
61644;SDS011;47553;52.428;13.382;2022-10-26T03:48:03;8.65;;;4.30;;
61644;SDS011;47553;52.428;13.382;2022-10-26T03:50:05;9.18;;;4.20;;
61644;SDS011;47553;52.428;13.382;2022-10-26T03:52:07;8.40;;;4.00;;
61644;SDS011;47553;52.428;13.382;2022-10-26T03:54:09;9.75;;;4.65;;
61644;SDS011;47553;52.428;13.382;2022-10-26T03:56:11;11.00;;;5.03;;
61644;SDS011;47553;52.428;13.382;2022-10-26T03:58:12;10.68;;;4.70;;
61644;SDS011;47553;52.428;13.382;2022-10-26T04:00:16;9.65;;;4.07;;
61644;SDS011;47553;52.428;13.382;2022-10-26T04:02:19;10.75;;;5.75;;
61644;SDS011;47553;52.428;13.382;2022-10-26T04:04:20;15.55;;;7.97;;
61644;SDS011;47553;52.428;13.382;2022-10-26T04:06:22;10.30;;;4.60;;
61644;SDS011;47553;52.428;13.382;2022-10-26T04:08:23;8.25;;;4.13;;
61644;SDS011;47553;52.428;13.382;2022-10-26T04:12:27;8.23;;;3.70;;
61644;SDS011;47553;52.428;13.382;2022-10-26T04:14:29;8.82;;;4.20;;
61644;SDS011;47553;52.428;13.382;2022-10-26T04:16:32;9.57;;;4.50;;
61644;SDS011;47553;52.428;13.382;2022-10-26T04:18:33;10.15;;;4.15;;
61644;SDS011;47553;52.428;13.382;2022-10-26T04:20:35;9.00;;;3.75;;
61644;SDS011;47553;52.428;13.382;2022-10-26T04:24:38;9.93;;;4.05;;
61644;SDS011;47553;52.428;13.382;2022-10-26T04:26:40;10.13;;;4.68;;
61644;SDS011;47553;52.428;13.382;2022-10-26T04:28:41;13.23;;;5.47;;
61644;SDS011;47553;52.428;13.382;2022-10-26T04:30:43;17.05;;;5.53;;
61644;SDS011;47553;52.428;13.382;2022-10-26T04:32:45;13.10;;;5.22;;
61644;SDS011;47553;52.428;13.382;2022-10-26T04:34:47;10.70;;;5.30;;
61644;SDS011;47553;52.428;13.382;2022-10-26T04:36:49;10.27;;;4.90;;
61644;SDS011;47553;52.428;13.382;2022-10-26T04:38:51;10.60;;;4.57;;
61644;SDS011;47553;52.428;13.382;2022-10-26T04:42:53;8.88;;;3.90;;
61644;SDS011;47553;52.428;13.382;2022-10-26T04:44:55;9.15;;;3.80;;
61644;SDS011;47553;52.428;13.382;2022-10-26T04:46:56;10.27;;;4.43;;
61644;SDS011;47553;52.428;13.382;2022-10-26T04:51:01;13.13;;;4.35;;
61644;SDS011;47553;52.428;13.382;2022-10-26T04:53:02;9.90;;;4.65;;
61644;SDS011;47553;52.428;13.382;2022-10-26T04:55:05;9.55;;;4.20;;
61644;SDS011;47553;52.428;13.382;2022-10-26T04:57:07;10.50;;;4.45;;
61644;SDS011;47553;52.428;13.382;2022-10-26T04:59:08;9.23;;;4.13;;
61644;SDS011;47553;52.428;13.382;2022-10-26T05:01:10;10.30;;;4.68;;
61644;SDS011;47553;52.428;13.382;2022-10-26T05:03:12;10.27;;;4.28;;
61644;SDS011;47553;52.428;13.382;2022-10-26T05:05:15;11.93;;;4.75;;
61644;SDS011;47553;52.428;13.382;2022-10-26T05:07:17;9.50;;;4.32;;
61644;SDS011;47553;52.428;13.382;2022-10-26T05:11:20;8.85;;;3.95;;
61644;SDS011;47553;52.428;13.382;2022-10-26T05:15:23;10.75;;;4.55;;
61644;SDS011;47553;52.428;13.382;2022-10-26T05:17:25;10.60;;;4.65;;
61644;SDS011;47553;52.428;13.382;2022-10-26T05:19:26;9.35;;;4.63;;
61644;SDS011;47553;52.428;13.382;2022-10-26T05:21:32;11.23;;;4.90;;
61644;SDS011;47553;52.428;13.382;2022-10-26T05:23:34;9.85;;;4.40;;
61644;SDS011;47553;52.428;13.382;2022-10-26T05:27:37;9.52;;;4.30;;
61644;SDS011;47553;52.428;13.382;2022-10-26T05:31:40;9.48;;;4.10;;
61644;SDS011;47553;52.428;13.382;2022-10-26T05:33:42;9.10;;;4.05;;
61644;SDS011;47553;52.428;13.382;2022-10-26T05:35:43;10.98;;;4.63;;
61644;SDS011;47553;52.428;13.382;2022-10-26T05:37:46;8.48;;;3.88;;
61644;SDS011;47553;52.428;13.382;2022-10-26T05:39:48;8.90;;;4.00;;
61644;SDS011;47553;52.428;13.382;2022-10-26T05:41:49;9.25;;;3.65;;
61644;SDS011;47553;52.428;13.382;2022-10-26T05:45:53;7.65;;;3.70;;
61644;SDS011;47553;52.428;13.382;2022-10-26T05:47:54;10.77;;;3.80;;
61644;SDS011;47553;52.428;13.382;2022-10-26T05:50:02;8.07;;;3.70;;
61644;SDS011;47553;52.428;13.382;2022-10-26T05:52:03;8.45;;;3.78;;
61644;SDS011;47553;52.428;13.382;2022-10-26T05:54:07;8.52;;;3.60;;
61644;SDS011;47553;52.428;13.382;2022-10-26T05:56:16;7.82;;;3.65;;
61644;SDS011;47553;52.428;13.382;2022-10-26T05:58:20;7.78;;;3.50;;
61644;SDS011;47553;52.428;13.382;2022-10-26T06:00:22;10.10;;;3.50;;
61644;SDS011;47553;52.428;13.382;2022-10-26T06:02:29;8.85;;;3.50;;
61644;SDS011;47553;52.428;13.382;2022-10-26T06:04:35;8.52;;;3.63;;
61644;SDS011;47553;52.428;13.382;2022-10-26T06:06:41;8.35;;;3.15;;
61644;SDS011;47553;52.428;13.382;2022-10-26T06:08:45;7.25;;;3.15;;
61644;SDS011;47553;52.428;13.382;2022-10-26T06:10:49;7.15;;;3.15;;
61644;SDS011;47553;52.428;13.382;2022-10-26T06:12:51;8.95;;;3.67;;
61644;SDS011;47553;52.428;13.382;2022-10-26T06:14:53;10.18;;;3.50;;
61644;SDS011;47553;52.428;13.382;2022-10-26T06:16:59;9.57;;;3.30;;
61644;SDS011;47553;52.428;13.382;2022-10-26T06:19:11;7.78;;;3.42;;
61644;SDS011;47553;52.428;13.382;2022-10-26T06:21:26;8.35;;;3.38;;
61644;SDS011;47553;52.428;13.382;2022-10-26T06:23:43;7.70;;;3.28;;
61644;SDS011;47553;52.428;13.382;2022-10-26T06:25:53;7.28;;;2.78;;
61644;SDS011;47553;52.428;13.382;2022-10-26T06:28:03;6.85;;;2.95;;
61644;SDS011;47553;52.428;13.382;2022-10-26T06:30:16;7.05;;;2.92;;
61644;SDS011;47553;52.428;13.382;2022-10-26T06:32:18;9.70;;;3.20;;
61644;SDS011;47553;52.428;13.382;2022-10-26T06:34:26;6.65;;;2.83;;
61644;SDS011;47553;52.428;13.382;2022-10-26T06:36:32;8.02;;;3.05;;
61644;SDS011;47553;52.428;13.382;2022-10-26T06:38:34;9.10;;;3.20;;
61644;SDS011;47553;52.428;13.382;2022-10-26T06:40:38;7.68;;;3.10;;
61644;SDS011;47553;52.428;13.382;2022-10-26T06:42:44;8.30;;;3.53;;
61644;SDS011;47553;52.428;13.382;2022-10-26T06:44:47;7.50;;;3.17;;
61644;SDS011;47553;52.428;13.382;2022-10-26T06:46:50;10.30;;;3.28;;
61644;SDS011;47553;52.428;13.382;2022-10-26T06:49:02;8.45;;;3.42;;
61644;SDS011;47553;52.428;13.382;2022-10-26T06:51:12;8.52;;;3.40;;
61644;SDS011;47553;52.428;13.382;2022-10-26T06:53:17;6.93;;;2.90;;
61644;SDS011;47553;52.428;13.382;2022-10-26T06:55:23;7.53;;;3.50;;
61644;SDS011;47553;52.428;13.382;2022-10-26T06:57:26;6.55;;;3.20;;
61644;SDS011;47553;52.428;13.382;2022-10-26T06:59:35;6.97;;;3.30;;
61644;SDS011;47553;52.428;13.382;2022-10-26T07:01:40;9.07;;;3.83;;
61644;SDS011;47553;52.428;13.382;2022-10-26T07:03:41;8.38;;;3.53;;
61644;SDS011;47553;52.428;13.382;2022-10-26T07:07:45;8.48;;;3.67;;
61644;SDS011;47553;52.428;13.382;2022-10-26T07:09:48;9.02;;;3.88;;
61644;SDS011;47553;52.428;13.382;2022-10-26T07:11:50;8.55;;;3.65;;
61644;SDS011;47553;52.428;13.382;2022-10-26T07:15:54;9.10;;;3.70;;
61644;SDS011;47553;52.428;13.382;2022-10-26T07:17:56;11.25;;;4.20;;
61644;SDS011;47553;52.428;13.382;2022-10-26T07:19:58;10.77;;;4.53;;
61644;SDS011;47553;52.428;13.382;2022-10-26T07:24:01;8.70;;;4.13;;
61644;SDS011;47553;52.428;13.382;2022-10-26T07:26:02;10.70;;;4.53;;
61644;SDS011;47553;52.428;13.382;2022-10-26T07:28:05;9.02;;;4.38;;
61644;SDS011;47553;52.428;13.382;2022-10-26T07:30:08;9.23;;;4.03;;
61644;SDS011;47553;52.428;13.382;2022-10-26T07:32:11;8.70;;;4.25;;
61644;SDS011;47553;52.428;13.382;2022-10-26T07:34:13;11.60;;;4.65;;
61644;SDS011;47553;52.428;13.382;2022-10-26T07:36:15;9.95;;;5.13;;
61644;SDS011;47553;52.428;13.382;2022-10-26T07:38:16;11.73;;;4.55;;
61644;SDS011;47553;52.428;13.382;2022-10-26T07:40:18;10.45;;;5.03;;
61644;SDS011;47553;52.428;13.382;2022-10-26T07:42:20;8.98;;;4.43;;
61644;SDS011;47553;52.428;13.382;2022-10-26T07:44:21;10.70;;;4.95;;
61644;SDS011;47553;52.428;13.382;2022-10-26T07:46:23;13.30;;;5.28;;
61644;SDS011;47553;52.428;13.382;2022-10-26T07:48:27;11.20;;;5.10;;
61644;SDS011;47553;52.428;13.382;2022-10-26T07:50:29;9.65;;;4.47;;
61644;SDS011;47553;52.428;13.382;2022-10-26T07:52:32;9.10;;;4.90;;
61644;SDS011;47553;52.428;13.382;2022-10-26T07:54:34;10.02;;;5.05;;
61644;SDS011;47553;52.428;13.382;2022-10-26T07:56:35;12.13;;;4.57;;
61644;SDS011;47553;52.428;13.382;2022-10-26T07:58:37;12.65;;;5.68;;
61644;SDS011;47553;52.428;13.382;2022-10-26T08:00:39;11.60;;;5.05;;
61644;SDS011;47553;52.428;13.382;2022-10-26T08:02:40;10.05;;;4.65;;
61644;SDS011;47553;52.428;13.382;2022-10-26T08:04:43;10.88;;;5.00;;
61644;SDS011;47553;52.428;13.382;2022-10-26T08:06:45;9.13;;;4.50;;
61644;SDS011;47553;52.428;13.382;2022-10-26T08:08:47;9.50;;;4.43;;
61644;SDS011;47553;52.428;13.382;2022-10-26T08:10:49;11.40;;;4.90;;
61644;SDS011;47553;52.428;13.382;2022-10-26T08:12:51;10.23;;;4.70;;
61644;SDS011;47553;52.428;13.382;2022-10-26T08:14:53;12.80;;;5.70;;
61644;SDS011;47553;52.428;13.382;2022-10-26T08:16:54;14.43;;;6.03;;
61644;SDS011;47553;52.428;13.382;2022-10-26T08:18:56;12.15;;;5.38;;
61644;SDS011;47553;52.428;13.382;2022-10-26T08:21:01;9.43;;;4.63;;
61644;SDS011;47553;52.428;13.382;2022-10-26T08:23:12;10.32;;;5.10;;
61644;SDS011;47553;52.428;13.382;2022-10-26T08:25:14;11.15;;;4.93;;
61644;SDS011;47553;52.428;13.382;2022-10-26T08:27:20;9.25;;;4.68;;
61644;SDS011;47553;52.428;13.382;2022-10-26T08:29:22;11.73;;;5.22;;
61644;SDS011;47553;52.428;13.382;2022-10-26T08:31:26;13.82;;;5.40;;
61644;SDS011;47553;52.428;13.382;2022-10-26T08:33:28;10.40;;;4.72;;
61644;SDS011;47553;52.428;13.382;2022-10-26T08:35:30;11.20;;;5.57;;
61644;SDS011;47553;52.428;13.382;2022-10-26T08:37:33;11.68;;;4.78;;
61644;SDS011;47553;52.428;13.382;2022-10-26T08:39:35;12.90;;;5.30;;
61644;SDS011;47553;52.428;13.382;2022-10-26T08:41:37;9.77;;;4.68;;
61644;SDS011;47553;52.428;13.382;2022-10-26T08:43:44;10.68;;;4.80;;
61644;SDS011;47553;52.428;13.382;2022-10-26T08:45:53;10.05;;;5.00;;
61644;SDS011;47553;52.428;13.382;2022-10-26T08:47:59;9.88;;;5.00;;
61644;SDS011;47553;52.428;13.382;2022-10-26T08:50:08;9.40;;;4.72;;
61644;SDS011;47553;52.428;13.382;2022-10-26T08:52:16;13.02;;;5.10;;
61644;SDS011;47553;52.428;13.382;2022-10-26T08:54:23;9.07;;;4.85;;
61644;SDS011;47553;52.428;13.382;2022-10-26T08:56:34;10.13;;;4.50;;
61644;SDS011;47553;52.428;13.382;2022-10-26T08:58:41;12.73;;;5.47;;
61644;SDS011;47553;52.428;13.382;2022-10-26T09:00:50;11.05;;;4.80;;
61644;SDS011;47553;52.428;13.382;2022-10-26T09:02:53;9.80;;;4.68;;
61644;SDS011;47553;52.428;13.382;2022-10-26T09:04:55;11.77;;;4.78;;
61644;SDS011;47553;52.428;13.382;2022-10-26T09:07:00;10.00;;;4.38;;
61644;SDS011;47553;52.428;13.382;2022-10-26T09:09:12;12.27;;;6.13;;
61644;SDS011;47553;52.428;13.382;2022-10-26T09:11:21;12.98;;;5.65;;
61644;SDS011;47553;52.428;13.382;2022-10-26T09:13:33;15.35;;;5.50;;
61644;SDS011;47553;52.428;13.382;2022-10-26T09:16:01;10.40;;;5.15;;
61644;SDS011;47553;52.428;13.382;2022-10-26T09:18:14;10.52;;;5.20;;
61644;SDS011;47553;52.428;13.382;2022-10-26T09:20:39;12.57;;;6.20;;
61644;SDS011;47553;52.428;13.382;2022-10-26T09:22:54;12.65;;;5.65;;
61644;SDS011;47553;52.428;13.382;2022-10-26T09:25:04;9.95;;;5.05;;
61644;SDS011;47553;52.428;13.382;2022-10-26T09:29:22;11.77;;;4.90;;
61644;SDS011;47553;52.428;13.382;2022-10-26T09:31:26;9.95;;;4.80;;
61644;SDS011;47553;52.428;13.382;2022-10-26T09:33:30;9.32;;;4.97;;
61644;SDS011;47553;52.428;13.382;2022-10-26T09:35:39;10.15;;;4.93;;
61644;SDS011;47553;52.428;13.382;2022-10-26T09:39:51;9.68;;;4.65;;
61644;SDS011;47553;52.428;13.382;2022-10-26T09:41:59;16.75;;;6.30;;
61644;SDS011;47553;52.428;13.382;2022-10-26T09:44:08;10.73;;;4.82;;
61644;SDS011;47553;52.428;13.382;2022-10-26T09:46:19;9.57;;;4.68;;
61644;SDS011;47553;52.428;13.382;2022-10-26T09:48:26;17.98;;;6.30;;
61644;SDS011;47553;52.428;13.382;2022-10-26T09:50:36;10.73;;;5.45;;
61644;SDS011;47553;52.428;13.382;2022-10-26T09:52:40;8.57;;;4.00;;
61644;SDS011;47553;52.428;13.382;2022-10-26T09:54:42;9.52;;;4.32;;
61644;SDS011;47553;52.428;13.382;2022-10-26T09:56:45;9.52;;;4.25;;
61644;SDS011;47553;52.428;13.382;2022-10-26T09:58:53;10.45;;;4.32;;
61644;SDS011;47553;52.428;13.382;2022-10-26T10:00:58;11.25;;;4.30;;
61644;SDS011;47553;52.428;13.382;2022-10-26T10:03:00;10.50;;;4.90;;
61644;SDS011;47553;52.428;13.382;2022-10-26T10:05:02;9.45;;;4.18;;
61644;SDS011;47553;52.428;13.382;2022-10-26T10:07:40;8.00;;;3.90;;
61644;SDS011;47553;52.428;13.382;2022-10-26T10:09:41;8.20;;;3.78;;
61644;SDS011;47553;52.428;13.382;2022-10-26T10:11:44;10.55;;;4.28;;
61644;SDS011;47553;52.428;13.382;2022-10-26T10:13:47;9.18;;;4.32;;
61644;SDS011;47553;52.428;13.382;2022-10-26T10:15:53;11.45;;;4.10;;
61644;SDS011;47553;52.428;13.382;2022-10-26T10:17:57;7.75;;;3.22;;
61644;SDS011;47553;52.428;13.382;2022-10-26T10:20:05;7.43;;;3.10;;
61644;SDS011;47553;52.428;13.382;2022-10-26T10:22:10;10.23;;;3.42;;
61644;SDS011;47553;52.428;13.382;2022-10-26T10:24:22;6.28;;;3.13;;
61644;SDS011;47553;52.428;13.382;2022-10-26T10:26:24;8.90;;;3.30;;
61644;SDS011;47553;52.428;13.382;2022-10-26T10:28:26;7.13;;;2.83;;
61644;SDS011;47553;52.428;13.382;2022-10-26T10:30:29;8.20;;;3.03;;
61644;SDS011;47553;52.428;13.382;2022-10-26T10:32:32;7.50;;;3.00;;
61644;SDS011;47553;52.428;13.382;2022-10-26T10:34:42;8.48;;;2.78;;
61644;SDS011;47553;52.428;13.382;2022-10-26T10:36:44;5.85;;;2.88;;
61644;SDS011;47553;52.428;13.382;2022-10-26T10:38:46;7.45;;;3.20;;
61644;SDS011;47553;52.428;13.382;2022-10-26T10:40:50;5.75;;;2.88;;
61644;SDS011;47553;52.428;13.382;2022-10-26T10:42:54;10.00;;;3.10;;
61644;SDS011;47553;52.428;13.382;2022-10-26T10:45:05;5.85;;;3.05;;
61644;SDS011;47553;52.428;13.382;2022-10-26T10:47:21;6.82;;;3.10;;
61644;SDS011;47553;52.428;13.382;2022-10-26T10:49:24;5.43;;;2.60;;
61644;SDS011;47553;52.428;13.382;2022-10-26T10:51:32;6.35;;;2.90;;
61644;SDS011;47553;52.428;13.382;2022-10-26T10:53:42;8.57;;;3.13;;
61644;SDS011;47553;52.428;13.382;2022-10-26T10:55:48;8.63;;;3.20;;
61644;SDS011;47553;52.428;13.382;2022-10-26T10:58:01;6.55;;;2.70;;
61644;SDS011;47553;52.428;13.382;2022-10-26T11:00:22;8.63;;;2.97;;
61644;SDS011;47553;52.428;13.382;2022-10-26T11:05:19;6.30;;;3.40;;
61644;SDS011;47553;52.428;13.382;2022-10-26T11:07:31;6.90;;;3.03;;
61644;SDS011;47553;52.428;13.382;2022-10-26T11:09:42;7.97;;;3.28;;
61644;SDS011;47553;52.428;13.382;2022-10-26T11:11:49;6.45;;;3.17;;
61644;SDS011;47553;52.428;13.382;2022-10-26T11:13:55;6.22;;;3.10;;
61644;SDS011;47553;52.428;13.382;2022-10-26T11:16:03;7.85;;;3.60;;
61644;SDS011;47553;52.428;13.382;2022-10-26T11:18:12;7.25;;;3.25;;
61644;SDS011;47553;52.428;13.382;2022-10-26T11:20:17;7.65;;;3.10;;
61644;SDS011;47553;52.428;13.382;2022-10-26T11:22:23;6.22;;;2.90;;
61644;SDS011;47553;52.428;13.382;2022-10-26T11:24:30;6.53;;;2.88;;
61644;SDS011;47553;52.428;13.382;2022-10-26T11:26:38;8.00;;;2.70;;
61644;SDS011;47553;52.428;13.382;2022-10-26T11:28:47;5.80;;;2.30;;
61644;SDS011;47553;52.428;13.382;2022-10-26T11:30:54;7.57;;;3.00;;
61644;SDS011;47553;52.428;13.382;2022-10-26T11:33:01;7.30;;;3.00;;
61644;SDS011;47553;52.428;13.382;2022-10-26T11:35:12;6.43;;;2.75;;
61644;SDS011;47553;52.428;13.382;2022-10-26T11:37:20;5.72;;;3.00;;
61644;SDS011;47553;52.428;13.382;2022-10-26T11:39:28;6.05;;;2.60;;
61644;SDS011;47553;52.428;13.382;2022-10-26T11:41:39;5.10;;;2.72;;
61644;SDS011;47553;52.428;13.382;2022-10-26T11:43:47;10.25;;;2.72;;
61644;SDS011;47553;52.428;13.382;2022-10-26T11:46:03;4.15;;;2.42;;
61644;SDS011;47553;52.428;13.382;2022-10-26T11:48:11;4.95;;;2.35;;
61644;SDS011;47553;52.428;13.382;2022-10-26T11:50:20;6.30;;;2.30;;
61644;SDS011;47553;52.428;13.382;2022-10-26T11:52:26;5.60;;;2.13;;
61644;SDS011;47553;52.428;13.382;2022-10-26T11:54:33;7.38;;;2.70;;
61644;SDS011;47553;52.428;13.382;2022-10-26T11:56:42;6.15;;;2.60;;
61644;SDS011;47553;52.428;13.382;2022-10-26T11:58:46;7.88;;;2.60;;
61644;SDS011;47553;52.428;13.382;2022-10-26T12:00:51;5.22;;;2.08;;
61644;SDS011;47553;52.428;13.382;2022-10-26T12:03:06;5.47;;;2.28;;
61644;SDS011;47553;52.428;13.382;2022-10-26T12:05:16;6.80;;;2.35;;
61644;SDS011;47553;52.428;13.382;2022-10-26T12:07:22;5.35;;;2.00;;
61644;SDS011;47553;52.428;13.382;2022-10-26T12:09:33;5.32;;;2.15;;
61644;SDS011;47553;52.428;13.382;2022-10-26T12:11:40;4.30;;;2.00;;
61644;SDS011;47553;52.428;13.382;2022-10-26T12:13:46;4.78;;;2.40;;
61644;SDS011;47553;52.428;13.382;2022-10-26T12:15:52;7.28;;;2.60;;
61644;SDS011;47553;52.428;13.382;2022-10-26T12:18:07;6.13;;;2.70;;
61644;SDS011;47553;52.428;13.382;2022-10-26T12:20:18;6.90;;;2.35;;
61644;SDS011;47553;52.428;13.382;2022-10-26T12:23:06;9.23;;;3.17;;
61644;SDS011;47553;52.428;13.382;2022-10-26T12:27:29;5.93;;;2.03;;
61644;SDS011;47553;52.428;13.382;2022-10-26T12:29:32;5.93;;;2.30;;
61644;SDS011;47553;52.428;13.382;2022-10-26T12:31:42;4.15;;;1.70;;
61644;SDS011;47553;52.428;13.382;2022-10-26T12:35:51;3.97;;;1.70;;
61644;SDS011;47553;52.428;13.382;2022-10-26T12:37:55;5.50;;;1.75;;
61644;SDS011;47553;52.428;13.382;2022-10-26T12:42:40;6.00;;;2.20;;
61644;SDS011;47553;52.428;13.382;2022-10-26T12:47:08;6.40;;;1.98;;
61644;SDS011;47553;52.428;13.382;2022-10-26T12:51:54;5.35;;;1.83;;
61644;SDS011;47553;52.428;13.382;2022-10-26T12:53:59;4.13;;;1.95;;
61644;SDS011;47553;52.428;13.382;2022-10-26T12:56:12;4.40;;;1.77;;
61644;SDS011;47553;52.428;13.382;2022-10-26T12:58:37;6.93;;;2.30;;
61644;SDS011;47553;52.428;13.382;2022-10-26T13:00:47;7.00;;;2.03;;
61644;SDS011;47553;52.428;13.382;2022-10-26T13:03:12;4.15;;;1.58;;
61644;SDS011;47553;52.428;13.382;2022-10-26T13:05:36;6.53;;;1.80;;
61644;SDS011;47553;52.428;13.382;2022-10-26T13:07:49;5.32;;;1.83;;
61644;SDS011;47553;52.428;13.382;2022-10-26T13:09:53;6.40;;;1.90;;
61644;SDS011;47553;52.428;13.382;2022-10-26T13:12:03;4.55;;;1.83;;
61644;SDS011;47553;52.428;13.382;2022-10-26T13:14:06;5.22;;;1.83;;
61644;SDS011;47553;52.428;13.382;2022-10-26T13:16:18;4.80;;;1.88;;
61644;SDS011;47553;52.428;13.382;2022-10-26T13:18:23;6.47;;;2.38;;
61644;SDS011;47553;52.428;13.382;2022-10-26T13:20:25;6.32;;;1.80;;
61644;SDS011;47553;52.428;13.382;2022-10-26T13:22:31;4.25;;;1.67;;
61644;SDS011;47553;52.428;13.382;2022-10-26T13:24:33;11.05;;;3.75;;